createdAt,value
2023-04-02T00:01:15.292Z,98854.60
2023-04-02T00:04:17.335Z,98856.66
2023-04-02T00:07:37.371Z,98853.73
2023-04-02T00:10:41.336Z,98856.81
2023-04-02T00:13:43.453Z,98854.06
2023-04-02T00:16:44.415Z,98861.42
2023-04-02T00:19:56.357Z,98858.52
2023-04-02T00:22:57.454Z,98859.52
2023-04-02T00:26:02.360Z,98860.02
2023-04-02T00:29:03.426Z,98861.39
2023-04-02T00:32:06.410Z,98864.14
2023-04-02T00:35:07.376Z,98861.05
2023-04-02T00:38:07.396Z,98864.83
2023-04-02T00:41:08.398Z,98860.21
2023-04-02T00:44:08.383Z,98861.89
2023-04-02T00:47:10.382Z,98867.16
2023-04-02T00:50:31.503Z,98867.99
2023-04-02T00:53:35.479Z,98870.54
2023-04-02T00:56:37.447Z,98875.30
2023-04-02T00:59:50.499Z,98878.53
2023-04-02T01:02:55.514Z,98877.15
2023-04-02T01:05:58.430Z,98879.66
2023-04-02T01:08:58.416Z,98881.36
2023-04-02T01:12:05.460Z,98877.89
2023-04-02T01:15:07.455Z,98876.34
2023-04-02T01:18:19.506Z,98877.23
2023-04-02T01:21:22.464Z,98880.14
2023-04-02T01:24:25.512Z,98879.25
2023-04-02T01:27:29.456Z,98877.91
2023-04-02T01:30:29.493Z,98875.88
2023-04-02T01:33:32.452Z,98875.52
2023-04-02T01:36:38.460Z,98877.44
2023-04-02T01:39:38.478Z,98879.67
2023-04-02T01:42:39.488Z,98879.69
2023-04-02T01:45:40.534Z,98879.69
2023-04-02T01:48:43.560Z,98882.27
2023-04-02T01:51:44.478Z,98883.42
2023-04-02T01:54:46.525Z,98883.91
2023-04-02T01:57:47.524Z,98883.23
2023-04-02T02:00:47.652Z,98884.91
2023-04-02T02:03:48.518Z,98885.40
2023-04-02T02:06:49.517Z,98879.87
2023-04-02T02:09:53.647Z,98878.98
2023-04-02T02:13:01.649Z,98882.59
2023-04-02T02:16:02.608Z,98885.48
2023-04-02T02:19:10.579Z,98885.43
2023-04-02T02:22:20.656Z,98882.70
2023-04-02T02:25:23.597Z,98886.45
2023-04-02T02:28:43.558Z,98882.84
2023-04-02T02:31:43.620Z,98884.23
2023-04-02T02:34:45.584Z,98884.34
2023-04-02T02:37:48.558Z,98880.70
2023-04-02T02:40:51.608Z,98879.48
2023-04-02T02:43:53.896Z,98882.41
2023-04-02T02:47:13.636Z,98883.10
2023-04-02T02:50:18.588Z,98886.84
2023-04-02T02:53:32.604Z,98885.83
2023-04-02T02:56:35.622Z,98886.50
2023-04-02T02:59:35.643Z,98888.42
2023-04-02T03:02:36.865Z,98889.80
2023-04-02T03:05:37.040Z,98892.03
2023-04-02T03:08:46.666Z,98898.73
2023-04-02T03:11:49.668Z,98896.48
2023-04-02T03:14:55.663Z,98903.00
2023-04-02T03:18:06.716Z,98902.67
2023-04-02T03:21:06.728Z,98904.78
2023-04-02T03:24:12.689Z,98903.27
2023-04-02T03:27:14.711Z,98911.00
2023-04-02T03:30:07.712Z,98912.31
2023-04-02T03:33:10.689Z,98913.68
2023-04-02T03:36:49.664Z,98912.65
2023-04-02T03:39:55.704Z,98916.39
2023-04-02T03:43:03.780Z,98918.45
2023-04-02T03:46:12.750Z,98921.38
2023-04-02T03:49:22.678Z,98924.81
2023-04-02T03:52:23.702Z,98928.45
2023-04-02T03:55:25.734Z,98929.67
2023-04-02T03:58:26.757Z,98934.12
2023-04-02T04:01:32.749Z,98933.23
2023-04-02T04:04:33.749Z,98932.35
2023-04-02T04:07:43.720Z,98936.52
2023-04-02T04:10:43.849Z,98935.69
2023-04-02T04:14:08.714Z,98938.43
2023-04-02T04:17:11.744Z,98939.30
2023-04-02T04:20:13.769Z,98942.77
2023-04-02T04:23:23.753Z,98942.60
2023-04-02T04:26:25.754Z,98945.52
2023-04-02T04:29:31.779Z,98945.52
2023-04-02T04:32:37.851Z,98947.90
2023-04-02T04:35:51.869Z,98952.34
2023-04-02T04:38:51.800Z,98953.02
2023-04-02T04:41:51.812Z,98953.55
2023-04-02T04:44:51.808Z,98961.05
2023-04-02T04:47:55.820Z,98967.39
2023-04-02T04:51:07.848Z,98963.26
2023-04-02T04:54:07.782Z,98962.89
2023-04-02T04:57:12.858Z,98964.49
2023-04-02T05:00:26.866Z,98965.41
2023-04-02T05:03:30.870Z,98969.56
2023-04-02T05:06:50.840Z,98971.48
2023-04-02T05:09:55.222Z,98970.41
2023-04-02T05:13:01.892Z,98969.59
2023-04-02T05:16:03.916Z,98971.55
2023-04-02T05:19:10.834Z,98970.92
2023-04-02T05:22:11.838Z,98977.48
2023-04-02T05:25:27.837Z,98973.02
2023-04-02T05:28:32.867Z,98980.15
2023-04-02T05:31:53.877Z,98977.77
2023-04-02T05:34:54.859Z,98977.45
2023-04-02T05:37:54.957Z,98977.86
2023-04-02T05:40:55.895Z,98976.60
2023-04-02T05:43:57.942Z,98979.58
2023-04-02T05:47:03.933Z,98978.77
2023-04-02T05:50:16.932Z,98987.48
2023-04-02T05:53:21.899Z,98985.15
2023-04-02T05:56:23.922Z,98982.73
2023-04-02T05:59:41.952Z,98982.13
2023-04-02T06:02:42.985Z,98984.48
2023-04-02T06:05:45.946Z,98992.71
2023-04-02T06:08:47.946Z,98992.04
2023-04-02T06:11:56.956Z,98993.05
2023-04-02T06:14:57.950Z,98999.77
2023-04-02T06:18:05.077Z,98998.38
2023-04-02T06:21:06.915Z,99000.77
2023-04-02T06:24:07.969Z,99003.18
2023-04-02T06:27:12.175Z,99005.39
2023-04-02T06:30:14.177Z,99011.51
2023-04-02T06:33:17.018Z,99015.40
2023-04-02T06:36:18.015Z,99012.66
2023-04-02T06:39:17.975Z,99012.87
2023-04-02T06:42:18.992Z,99014.89
2023-04-02T06:45:30.208Z,99018.93
2023-04-02T06:48:56.075Z,99021.66
2023-04-02T06:51:56.013Z,99018.42
2023-04-02T06:54:58.101Z,99021.70
2023-04-02T06:57:59.008Z,99026.88
2023-04-02T07:00:59.073Z,99029.31
2023-04-02T07:04:18.052Z,99029.89
2023-04-02T07:07:20.079Z,99028.96
2023-04-02T07:10:20.018Z,99033.16
2023-04-02T07:13:20.038Z,99032.62
2023-04-02T07:16:21.082Z,99031.63
2023-04-02T07:19:22.077Z,99039.91
2023-04-02T07:22:25.062Z,99043.06
2023-04-02T07:25:27.081Z,99052.52
2023-04-02T07:28:27.072Z,99056.41
2023-04-02T07:31:30.099Z,99052.83
2023-04-02T07:34:30.162Z,99045.48
2023-04-02T07:37:34.442Z,99049.70
2023-04-02T07:40:35.098Z,99050.70
2023-04-02T07:43:36.084Z,99042.16
2023-04-02T07:46:36.168Z,99044.88
2023-04-02T07:49:39.183Z,99040.80
2023-04-02T07:52:40.549Z,99045.56
2023-04-02T07:55:48.115Z,99048.89
2023-04-02T07:58:48.121Z,99058.81
2023-04-02T08:01:50.165Z,99060.27
2023-04-02T08:04:52.120Z,99069.55
2023-04-02T08:07:54.108Z,99062.98
2023-04-02T08:10:54.149Z,99058.60
2023-04-02T08:13:56.237Z,99059.48
2023-04-02T08:16:57.348Z,99063.61
2023-04-02T08:20:02.147Z,99063.27
2023-04-02T08:23:02.191Z,99062.27
2023-04-02T08:26:08.192Z,99064.69
2023-04-02T08:29:09.205Z,99065.19
2023-04-02T08:32:10.195Z,99065.70
2023-04-02T08:35:10.258Z,99061.82
2023-04-02T08:38:12.219Z,99067.77
2023-04-02T08:41:12.193Z,99065.83
2023-04-02T08:44:30.244Z,99074.34
2023-04-02T08:47:32.253Z,99067.85
2023-04-02T08:50:41.338Z,99076.59
2023-04-02T08:53:42.219Z,99084.07
2023-04-02T08:56:44.660Z,99076.02
2023-04-02T08:59:46.227Z,99083.92
2023-04-02T09:02:56.437Z,99083.98
2023-04-02T09:05:57.268Z,99086.76
2023-04-02T09:09:07.242Z,99088.58
2023-04-02T09:12:10.656Z,99085.66
2023-04-02T09:15:19.234Z,99088.93
2023-04-02T09:18:24.319Z,99091.90
2023-04-02T09:21:35.283Z,99084.04
2023-04-02T09:24:35.298Z,99089.21
2023-04-02T09:27:40.287Z,99090.04
2023-04-02T09:30:43.287Z,99094.13
2023-04-02T09:34:02.298Z,99095.83
2023-04-02T09:37:02.298Z,99097.27
2023-04-02T09:40:04.406Z,99100.23
2023-04-02T09:43:37.284Z,99100.30
2023-04-02T09:46:37.349Z,99109.88
2023-04-02T09:49:37.367Z,99113.84
2023-04-02T09:52:41.330Z,99111.70
2023-04-02T09:55:41.343Z,99113.90
2023-04-02T09:58:41.305Z,99115.45
2023-04-02T10:01:45.372Z,99119.95
2023-04-02T10:04:45.605Z,99118.87
2023-04-02T10:07:49.356Z,99121.80
2023-04-02T10:10:53.366Z,99119.56
2023-04-02T10:13:56.316Z,99125.03
2023-04-02T10:17:06.613Z,99118.48
2023-04-02T10:20:15.389Z,99117.30
2023-04-02T10:23:16.667Z,99119.42
2023-04-02T10:26:35.416Z,99121.27
2023-04-02T10:30:15.610Z,99122.36
2023-04-02T10:33:20.426Z,99130.38
2023-04-02T10:36:37.127Z,99134.67
2023-04-02T10:39:42.385Z,99138.25
2023-04-02T10:42:57.413Z,99142.18
2023-04-02T10:46:00.545Z,99139.27
2023-04-02T10:49:05.528Z,99137.77
2023-04-02T10:52:11.450Z,99136.40
2023-04-02T10:55:13.493Z,99142.52
2023-04-02T10:58:17.417Z,99137.09
2023-04-02T11:01:22.464Z,99144.37
2023-04-02T11:04:31.564Z,99138.99
2023-04-02T11:07:33.492Z,99144.65
2023-04-02T11:10:33.430Z,99144.82
2023-04-02T11:13:40.463Z,99149.98
2023-04-02T11:16:44.078Z,99142.71
2023-04-02T11:19:47.431Z,99143.02
2023-04-02T11:22:47.486Z,99150.19
2023-04-02T11:25:48.499Z,99149.98
2023-04-02T11:28:48.545Z,99148.41
2023-04-02T11:31:48.540Z,99146.80
2023-04-02T11:35:05.099Z,99147.65
2023-04-02T11:38:10.479Z,99151.75
2023-04-02T11:41:11.614Z,99151.73
2023-04-02T11:44:12.550Z,99148.77
2023-04-02T11:47:27.568Z,99153.11
2023-04-02T11:50:40.534Z,99153.48
2023-04-02T11:53:45.647Z,99155.52
2023-04-02T11:56:48.579Z,99155.01
2023-04-02T11:59:50.538Z,99156.41
2023-04-02T12:03:12.629Z,99160.52
2023-04-02T12:06:19.552Z,99160.48
2023-04-02T12:09:20.520Z,99160.46
2023-04-02T12:12:30.557Z,99162.77
2023-04-02T12:15:39.568Z,99164.17
2023-04-02T12:18:39.583Z,99163.33
2023-04-02T12:21:39.542Z,99165.79
2023-04-02T12:24:39.648Z,99171.87
2023-04-02T12:27:43.613Z,99169.23
2023-04-02T12:30:47.627Z,99171.80
2023-04-02T12:33:51.584Z,99171.60
2023-04-02T12:37:03.630Z,99174.30
2023-04-02T12:40:04.648Z,99177.91
2023-04-02T12:43:07.639Z,99176.03
2023-04-02T12:46:08.612Z,99175.20
2023-04-02T12:49:12.676Z,99176.41
2023-04-02T12:52:12.605Z,99174.20
2023-04-02T12:55:12.636Z,99175.27
2023-04-02T12:58:12.647Z,99172.85
2023-04-02T13:01:25.637Z,99177.86
2023-04-02T13:04:27.704Z,99173.63
2023-04-02T13:07:28.637Z,99176.09
2023-04-02T13:10:35.811Z,99171.91
2023-04-02T13:13:38.744Z,99174.58
2023-04-02T13:16:39.680Z,99172.98
2023-04-02T13:19:44.115Z,99175.24
2023-04-02T13:22:43.658Z,99172.48
2023-04-02T13:25:44.708Z,99175.67
2023-04-02T13:28:44.772Z,99173.95
2023-04-02T13:31:45.709Z,99173.29
2023-04-02T13:34:46.662Z,99176.95
2023-04-02T13:37:48.762Z,99178.61
2023-04-02T13:40:49.805Z,99179.06
2023-04-02T13:43:50.717Z,99176.19
2023-04-02T13:46:50.798Z,99176.75
2023-04-02T13:49:52.720Z,99176.34
2023-04-02T13:52:53.776Z,99176.46
2023-04-02T13:55:54.710Z,99178.85
2023-04-02T13:58:55.759Z,99179.70
2023-04-02T14:01:59.797Z,99179.10
2023-04-02T14:05:01.760Z,99176.10
2023-04-02T14:08:02.725Z,99175.83
2023-04-02T14:11:13.771Z,99180.52
2023-04-02T14:14:13.796Z,99183.27
2023-04-02T14:17:35.831Z,99181.31
2023-04-02T14:20:44.805Z,99180.60
2023-04-02T14:23:47.771Z,99184.33
2023-04-02T14:26:53.820Z,99183.45
2023-04-02T14:30:25.791Z,99182.55
2023-04-02T14:33:31.781Z,99185.91
2023-04-02T14:36:51.791Z,99185.50
2023-04-02T14:39:54.774Z,99189.58
2023-04-02T14:42:58.807Z,99188.71
2023-04-02T14:46:08.856Z,99185.41
2023-04-02T14:49:34.865Z,99190.48
2023-04-02T14:52:34.897Z,99191.00
2023-04-02T14:55:48.828Z,99193.52
2023-04-02T14:58:53.955Z,99196.91
2023-04-02T15:01:55.847Z,99193.02
2023-04-02T15:05:01.127Z,99194.11
2023-04-02T15:08:11.847Z,99193.80
2023-04-02T15:11:12.989Z,99197.19
2023-04-02T15:14:18.875Z,99204.80
2023-04-02T15:17:19.857Z,99203.92
2023-04-02T15:20:25.839Z,99206.02
2023-04-02T15:23:28.889Z,99203.26
2023-04-02T15:26:50.860Z,99204.82
2023-04-02T15:29:50.907Z,99206.45
2023-04-02T15:32:53.075Z,99205.10
2023-04-02T15:35:53.900Z,99205.40
2023-04-02T15:38:56.886Z,99208.79
2023-04-02T15:42:16.936Z,99207.38
2023-04-02T15:45:28.925Z,99205.80
2023-04-02T15:48:28.956Z,99208.22
2023-04-02T15:51:36.965Z,99213.02
2023-04-02T15:54:55.916Z,99213.17
2023-04-02T15:58:03.958Z,99213.02
2023-04-02T16:01:15.943Z,99216.61
2023-04-02T16:04:19.560Z,99221.95
2023-04-02T16:07:39.940Z,99222.78
2023-04-02T16:10:47.386Z,99224.15
2023-04-02T16:13:52.959Z,99224.44
2023-04-02T16:16:53.039Z,99218.60
2023-04-02T16:19:56.041Z,99222.32
2023-04-02T16:23:00.471Z,99223.64
2023-04-02T16:26:03.025Z,99224.65
2023-04-02T16:29:10.069Z,99223.93
2023-04-02T16:32:12.600Z,99226.62
2023-04-02T16:38:39.007Z,99228.62
2023-04-02T16:41:53.017Z,99231.22
2023-04-02T16:45:01.256Z,99232.23
2023-04-02T16:48:26.046Z,99231.88
2023-04-02T16:51:27.009Z,99236.05
2023-04-02T16:54:39.054Z,99231.88
2023-04-02T16:57:45.033Z,99229.10
2023-04-02T17:01:02.104Z,99230.93
2023-04-02T17:04:13.190Z,99231.41
2023-04-02T17:07:21.063Z,99235.15
2023-04-02T17:10:36.297Z,99236.32
2023-04-02T17:13:44.183Z,99241.55
2023-04-02T17:16:49.284Z,99242.91
2023-04-02T17:19:50.203Z,99245.20
2023-04-02T17:22:51.103Z,99245.77
2023-04-02T17:26:07.074Z,99250.94
2023-04-02T17:29:07.086Z,99257.62
2023-04-02T17:32:10.074Z,99260.09
2023-04-02T17:35:11.056Z,99263.19
2023-04-02T17:38:21.033Z,99264.59
2023-04-02T17:41:24.127Z,99265.52
2023-04-02T17:44:47.523Z,99272.59
2023-04-02T17:47:59.176Z,99274.70
2023-04-02T17:51:18.131Z,99276.75
2023-04-02T17:54:36.162Z,99276.44
2023-04-02T17:57:47.155Z,99280.58
2023-04-02T18:01:08.423Z,99288.39
2023-04-02T18:04:15.120Z,99288.11
2023-04-02T18:07:22.214Z,99287.95
2023-04-02T18:10:23.958Z,99291.52
2023-04-02T18:13:29.166Z,99295.10
2023-04-02T18:16:39.338Z,99291.05
2023-04-02T18:19:46.279Z,99296.09
2023-04-02T18:22:52.223Z,99296.08
2023-04-02T18:26:09.187Z,99295.96
2023-04-02T18:29:12.388Z,99292.56
2023-04-02T18:32:31.522Z,99296.48
2023-04-02T18:35:37.428Z,99295.55
2023-04-02T18:38:54.266Z,99295.55
2023-04-02T18:42:15.279Z,99297.08
2023-04-02T18:45:16.335Z,99300.55
2023-04-02T18:48:32.211Z,99300.23
2023-04-02T18:51:34.466Z,99302.43
2023-04-02T18:54:47.295Z,99304.94
2023-04-02T18:57:48.257Z,99301.65
2023-04-02T19:00:51.319Z,99306.98
2023-04-02T19:03:57.428Z,99308.80
2023-04-02T19:07:01.540Z,99307.65
2023-04-02T19:10:04.486Z,99307.25
2023-04-02T19:13:08.300Z,99306.66
2023-04-02T19:16:28.408Z,99305.39
2023-04-02T19:19:22.401Z,99303.60
2023-04-02T19:22:28.540Z,99307.36
2023-04-02T19:25:40.460Z,99306.55
2023-04-02T19:28:46.295Z,99306.96
2023-04-02T19:31:56.442Z,99307.55
2023-04-02T19:35:17.298Z,99311.01
2023-04-02T19:38:37.324Z,99308.27
2023-04-02T19:41:38.499Z,99308.25
2023-04-02T19:49:03.379Z,99308.77
2023-04-02T19:52:10.428Z,99309.81
2023-04-02T19:55:10.406Z,99305.88
2023-04-02T19:58:19.271Z,99307.48
2023-04-02T20:01:21.431Z,99309.24
2023-04-02T20:04:22.539Z,99311.04
2023-04-02T20:07:24.412Z,99307.51
2023-04-02T20:10:25.798Z,99309.66
2023-04-02T20:13:27.682Z,99315.11
2023-04-02T20:16:28.707Z,99314.43
2023-04-02T20:19:28.587Z,99310.80
2023-04-02T20:22:28.984Z,99311.38
2023-04-02T20:25:32.527Z,99311.98
2023-04-02T20:28:35.491Z,99307.83
2023-04-02T20:31:36.639Z,99310.22
2023-04-02T20:34:37.982Z,99311.09
2023-04-02T20:37:39.698Z,99312.45
2023-04-02T20:40:52.222Z,99311.91
2023-04-02T20:43:53.416Z,99310.02
2023-04-02T20:46:54.136Z,99310.35
2023-04-02T20:49:56.434Z,99312.14
2023-04-02T20:52:57.484Z,99309.52
2023-04-02T20:55:57.517Z,99311.92
2023-04-02T20:58:57.669Z,99310.36
2023-04-02T21:01:57.492Z,99312.77
2023-04-02T21:04:58.581Z,99312.92
2023-04-02T21:07:58.485Z,99316.90
2023-04-02T21:10:59.613Z,99315.40
2023-04-02T21:14:00.504Z,99316.59
2023-04-02T21:17:01.704Z,99311.98
2023-04-02T21:20:02.714Z,99314.52
2023-04-02T21:23:02.517Z,99315.83
2023-04-02T21:26:29.657Z,99312.66
2023-04-02T21:29:30.802Z,99313.52
2023-04-02T21:32:30.564Z,99314.35
2023-04-02T21:35:31.610Z,99315.38
2023-04-02T21:38:32.509Z,99312.63
2023-04-02T21:41:53.846Z,99311.88
2023-04-02T21:44:53.566Z,99310.86
2023-04-02T21:47:54.576Z,99312.77
2023-04-02T21:50:54.624Z,99312.38
2023-04-02T21:53:54.591Z,99312.44
2023-04-02T21:56:56.667Z,99309.69
2023-04-02T21:59:56.657Z,99311.17
2023-04-02T22:02:58.594Z,99310.13
2023-04-02T22:06:03.239Z,99304.92
2023-04-02T22:09:08.677Z,99304.11
2023-04-02T22:12:08.608Z,99306.90
2023-04-02T22:15:08.677Z,99304.61
2023-04-02T22:18:10.597Z,99307.58
2023-04-02T22:21:10.656Z,99306.67
2023-04-02T22:24:15.636Z,99310.70
2023-04-02T22:27:16.608Z,99308.70
2023-04-02T22:30:23.770Z,99309.89
2023-04-02T22:33:25.693Z,99312.64
2023-04-02T22:36:25.592Z,99308.88
2023-04-02T22:39:46.682Z,99306.98
2023-04-02T22:42:49.038Z,99305.09
2023-04-02T22:45:49.667Z,99302.73
2023-04-02T22:48:49.729Z,99304.52
2023-04-02T22:51:52.723Z,99304.97
2023-04-02T22:54:52.638Z,99304.02
2023-04-02T22:57:52.644Z,99309.20
2023-04-02T23:00:52.684Z,99309.30
2023-04-02T23:03:54.734Z,99305.15
2023-04-02T23:06:55.720Z,99305.48
2023-04-02T23:09:55.628Z,99304.17
2023-04-02T23:12:57.694Z,99300.04
2023-04-02T23:15:58.700Z,99298.95
2023-04-02T23:19:04.708Z,99297.43
2023-04-02T23:22:04.722Z,99296.42
2023-04-02T23:25:04.706Z,99291.09
2023-04-02T23:28:04.697Z,99289.77
2023-04-02T23:31:06.871Z,99288.63
2023-04-02T23:34:08.959Z,99288.20
2023-04-02T23:37:08.706Z,99285.24
2023-04-02T23:40:08.737Z,99287.50
2023-04-02T23:43:09.700Z,99285.67
2023-04-02T23:46:09.742Z,99287.43
2023-04-02T23:49:09.740Z,99278.61
2023-04-02T23:52:11.770Z,99278.58
2023-04-02T23:55:11.692Z,99281.63
2023-04-02T23:58:11.719Z,99280.50
